Airfield :
LOGIN :

Register | Disclaimer

   EN    FR    IT 

 










Legend :    VFR   Marginal VFR   IFR   Intensive IFR   Very Intensive IFR
Visi :
Ceiling :
>= 8 km
>= 3000ft
5 to 8 km
1000 to 3000 ft
1500m to 5 km
500 to 1000 ft
800 to 1500m
200 to 500 ft
< 800m
< 200 ft
Symbols :   Thunderstorms  Fog  Heavy snow  Heavy precipitations  Wind > 20 kt
SIGMETs :     Misc.  Thunderstorms  Icing  Turbulence  Mountain Waves  Volcanic Ashes






- Airport Elevation : 607 ft
- IATA code : BCM


LRBC - Bacău

CURRENT METAR :
  • 030000Z 13004KT 080V220 CAVOK 07/07 Q1006

EXPIRED METARs :
  • 022330Z VRB01KT 9999 FEW065 07/06 Q1007
  • 022300Z 17003KT 9999 FEW060 08/07 Q1007
  • 022230Z 19002KT 9999 FEW060 08/07 Q1007
  • 022200Z 18002KT 9999 FEW060 08/07 Q1008
  • 022130Z 27003KT 9999 SCT060 09/08 Q1008

TAF TAF LRBC
Valid from the 03 at 00:00 until the 03 at 09:00 UTC


022300Z 0300/0309 VRB04KT 9999 BKN060



MET'MAP, your aeronautical weather chart ! - Copyright ORBIFLY December 2007 - Disclaimer

ORBIFLY MET'MAP TEAM :

Programming & Development : Alexandra Zaïnal
Concept & original design : Baudouin d'Aumeries
Assistance for programming : Marc-Olivier Méhu
Technical & hardware support : Manuel Goepfert

Contact : metmap@orbifly.com




SOURCES & CREDITS :

   NOAA